sensor_id;sensor_type;location;lat;lon;timestamp;temperature;humidity
14006;DHT22;7078;51.542;7.314;2023-02-26T00:02:10;0.40;99.90
14006;DHT22;7078;51.542;7.314;2023-02-26T00:04:36;0.50;99.90
14006;DHT22;7078;51.542;7.314;2023-02-26T00:07:02;0.50;99.90
14006;DHT22;7078;51.542;7.314;2023-02-26T00:09:29;0.40;99.90
14006;DHT22;7078;51.542;7.314;2023-02-26T00:11:55;0.40;99.90
14006;DHT22;7078;51.542;7.314;2023-02-26T00:14:21;0.40;99.90
14006;DHT22;7078;51.542;7.314;2023-02-26T00:17:08;0.40;99.90
14006;DHT22;7078;51.542;7.314;2023-02-26T00:19:38;0.40;99.90
14006;DHT22;7078;51.542;7.314;2023-02-26T00:22:03;0.40;99.90
14006;DHT22;7078;51.542;7.314;2023-02-26T00:24:29;0.40;99.90
14006;DHT22;7078;51.542;7.314;2023-02-26T00:26:54;0.40;99.90
14006;DHT22;7078;51.542;7.314;2023-02-26T00:29:20;0.40;99.90
14006;DHT22;7078;51.542;7.314;2023-02-26T00:31:46;0.30;99.90
14006;DHT22;7078;51.542;7.314;2023-02-26T00:34:12;0.40;99.90
14006;DHT22;7078;51.542;7.314;2023-02-26T00:42:12;0.50;99.90
14006;DHT22;7078;51.542;7.314;2023-02-26T00:44:38;0.60;99.90
14006;DHT22;7078;51.542;7.314;2023-02-26T00:47:20;0.60;99.90
14006;DHT22;7078;51.542;7.314;2023-02-26T00:52:27;0.70;99.90
14006;DHT22;7078;51.542;7.314;2023-02-26T00:54:53;0.70;99.90
14006;DHT22;7078;51.542;7.314;2023-02-26T00:57:19;0.80;99.90
14006;DHT22;7078;51.542;7.314;2023-02-26T00:59:44;0.80;99.90
14006;DHT22;7078;51.542;7.314;2023-02-26T01:02:10;0.80;99.90
14006;DHT22;7078;51.542;7.314;2023-02-26T01:04:36;0.80;99.90
14006;DHT22;7078;51.542;7.314;2023-02-26T01:07:01;0.80;99.90
14006;DHT22;7078;51.542;7.314;2023-02-26T01:09:35;0.80;99.90
14006;DHT22;7078;51.542;7.314;2023-02-26T01:12:07;0.90;99.90
14006;DHT22;7078;51.542;7.314;2023-02-26T01:14:34;0.90;99.90
14006;DHT22;7078;51.542;7.314;2023-02-26T01:17:26;0.90;99.90
14006;DHT22;7078;51.542;7.314;2023-02-26T01:19:59;0.90;99.90
14006;DHT22;7078;51.542;7.314;2023-02-26T01:22:33;0.90;99.90
14006;DHT22;7078;51.542;7.314;2023-02-26T01:25:28;1.00;99.90
14006;DHT22;7078;51.542;7.314;2023-02-26T01:27:54;1.00;99.90
14006;DHT22;7078;51.542;7.314;2023-02-26T01:30:23;0.90;99.90
14006;DHT22;7078;51.542;7.314;2023-02-26T01:37:49;0.90;99.90
14006;DHT22;7078;51.542;7.314;2023-02-26T01:42:50;0.80;99.90
14006;DHT22;7078;51.542;7.314;2023-02-26T01:48:22;0.70;99.90
14006;DHT22;7078;51.542;7.314;2023-02-26T01:50:54;0.70;99.90
14006;DHT22;7078;51.542;7.314;2023-02-26T01:53:23;0.70;99.90
14006;DHT22;7078;51.542;7.314;2023-02-26T01:55:55;0.60;99.90
14006;DHT22;7078;51.542;7.314;2023-02-26T01:58:21;0.60;99.90
14006;DHT22;7078;51.542;7.314;2023-02-26T02:00:48;0.60;99.90
14006;DHT22;7078;51.542;7.314;2023-02-26T02:03:14;0.50;99.90
14006;DHT22;7078;51.542;7.314;2023-02-26T02:05:48;0.50;99.90
14006;DHT22;7078;51.542;7.314;2023-02-26T02:08:15;0.50;99.90
14006;DHT22;7078;51.542;7.314;2023-02-26T02:10:43;0.50;99.90
14006;DHT22;7078;51.542;7.314;2023-02-26T02:21:53;0.40;99.90
14006;DHT22;7078;51.542;7.314;2023-02-26T02:26:58;0.30;99.90
14006;DHT22;7078;51.542;7.314;2023-02-26T02:29:50;0.30;99.90
14006;DHT22;7078;51.542;7.314;2023-02-26T02:32:35;0.30;99.90
14006;DHT22;7078;51.542;7.314;2023-02-26T02:35:08;0.20;99.90
14006;DHT22;7078;51.542;7.314;2023-02-26T02:38:05;0.20;99.90
14006;DHT22;7078;51.542;7.314;2023-02-26T02:40:35;0.20;99.90
14006;DHT22;7078;51.542;7.314;2023-02-26T02:43:23;0.20;99.90
14006;DHT22;7078;51.542;7.314;2023-02-26T02:45:53;0.20;99.90
14006;DHT22;7078;51.542;7.314;2023-02-26T02:48:23;0.20;99.90
14006;DHT22;7078;51.542;7.314;2023-02-26T02:51:00;0.20;99.90
14006;DHT22;7078;51.542;7.314;2023-02-26T02:53:39;0.20;99.90
14006;DHT22;7078;51.542;7.314;2023-02-26T02:56:09;0.20;99.90
14006;DHT22;7078;51.542;7.314;2023-02-26T02:58:44;0.20;99.90
14006;DHT22;7078;51.542;7.314;2023-02-26T03:01:13;0.20;99.90
14006;DHT22;7078;51.542;7.314;2023-02-26T03:06:28;0.20;99.90
14006;DHT22;7078;51.542;7.314;2023-02-26T03:08:54;0.10;99.90
14006;DHT22;7078;51.542;7.314;2023-02-26T03:11:20;0.10;99.90
14006;DHT22;7078;51.542;7.314;2023-02-26T03:13:46;0.10;99.90
14006;DHT22;7078;51.542;7.314;2023-02-26T03:18:59;0.00;99.90
14006;DHT22;7078;51.542;7.314;2023-02-26T03:21:58;0.00;99.90
14006;DHT22;7078;51.542;7.314;2023-02-26T03:24:37;0.00;99.90
14006;DHT22;7078;51.542;7.314;2023-02-26T03:30:13;0.00;99.90
14006;DHT22;7078;51.542;7.314;2023-02-26T03:35:18;0.00;99.90
14006;DHT22;7078;51.542;7.314;2023-02-26T03:37:49;0.00;99.90
14006;DHT22;7078;51.542;7.314;2023-02-26T03:40:28;0.00;99.90
14006;DHT22;7078;51.542;7.314;2023-02-26T03:46:06;-0.10;99.90
14006;DHT22;7078;51.542;7.314;2023-02-26T03:48:34;-0.10;99.90
14006;DHT22;7078;51.542;7.314;2023-02-26T03:51:04;-0.10;99.90
14006;DHT22;7078;51.542;7.314;2023-02-26T03:53:35;-0.10;99.90
14006;DHT22;7078;51.542;7.314;2023-02-26T03:58:48;-0.20;99.90
14006;DHT22;7078;51.542;7.314;2023-02-26T04:01:22;-0.20;99.90
14006;DHT22;7078;51.542;7.314;2023-02-26T04:03:56;-0.30;99.90
14006;DHT22;7078;51.542;7.314;2023-02-26T04:06:23;-0.30;99.90
14006;DHT22;7078;51.542;7.314;2023-02-26T04:08:49;-0.30;99.90
14006;DHT22;7078;51.542;7.314;2023-02-26T04:11:17;-0.30;99.90
14006;DHT22;7078;51.542;7.314;2023-02-26T04:13:43;-0.30;99.90
14006;DHT22;7078;51.542;7.314;2023-02-26T04:16:09;-0.30;99.90
14006;DHT22;7078;51.542;7.314;2023-02-26T04:18:34;-0.30;99.90
14006;DHT22;7078;51.542;7.314;2023-02-26T04:21:00;-0.30;99.90
14006;DHT22;7078;51.542;7.314;2023-02-26T04:23:26;-0.30;99.90
14006;DHT22;7078;51.542;7.314;2023-02-26T04:25:51;-0.30;99.90
14006;DHT22;7078;51.542;7.314;2023-02-26T04:28:17;-0.40;99.90
14006;DHT22;7078;51.542;7.314;2023-02-26T04:30:43;-0.40;99.90
14006;DHT22;7078;51.542;7.314;2023-02-26T04:33:08;-0.40;99.90
14006;DHT22;7078;51.542;7.314;2023-02-26T04:35:34;-0.30;99.90
14006;DHT22;7078;51.542;7.314;2023-02-26T04:37:59;-0.30;99.90
14006;DHT22;7078;51.542;7.314;2023-02-26T04:40:25;-0.40;99.90
14006;DHT22;7078;51.542;7.314;2023-02-26T04:42:51;-0.40;99.90
14006;DHT22;7078;51.542;7.314;2023-02-26T04:45:17;-0.40;99.90
14006;DHT22;7078;51.542;7.314;2023-02-26T04:47:42;-0.40;99.90
14006;DHT22;7078;51.542;7.314;2023-02-26T04:50:09;-0.40;99.90
14006;DHT22;7078;51.542;7.314;2023-02-26T04:52:34;-0.50;99.90
14006;DHT22;7078;51.542;7.314;2023-02-26T04:55:00;-0.50;99.90
14006;DHT22;7078;51.542;7.314;2023-02-26T04:57:26;-0.50;99.90
14006;DHT22;7078;51.542;7.314;2023-02-26T04:59:51;-0.50;99.90
14006;DHT22;7078;51.542;7.314;2023-02-26T05:02:17;-0.50;99.90
14006;DHT22;7078;51.542;7.314;2023-02-26T05:04:43;-0.60;99.90
14006;DHT22;7078;51.542;7.314;2023-02-26T05:07:09;-0.60;99.90
14006;DHT22;7078;51.542;7.314;2023-02-26T05:09:35;-0.60;99.90
14006;DHT22;7078;51.542;7.314;2023-02-26T05:12:00;-0.60;99.90
14006;DHT22;7078;51.542;7.314;2023-02-26T05:14:26;-0.60;99.90
14006;DHT22;7078;51.542;7.314;2023-02-26T05:16:51;-0.60;99.90
14006;DHT22;7078;51.542;7.314;2023-02-26T05:19:17;-0.70;99.90
14006;DHT22;7078;51.542;7.314;2023-02-26T05:21:42;-0.70;99.90
14006;DHT22;7078;51.542;7.314;2023-02-26T05:24:08;-0.70;99.90
14006;DHT22;7078;51.542;7.314;2023-02-26T05:26:33;-0.80;99.90
14006;DHT22;7078;51.542;7.314;2023-02-26T05:28:59;-0.80;99.90
14006;DHT22;7078;51.542;7.314;2023-02-26T05:31:24;-0.80;99.90
14006;DHT22;7078;51.542;7.314;2023-02-26T05:33:51;-0.80;99.90
14006;DHT22;7078;51.542;7.314;2023-02-26T05:36:17;-0.80;99.90
14006;DHT22;7078;51.542;7.314;2023-02-26T05:38:42;-0.80;99.90
14006;DHT22;7078;51.542;7.314;2023-02-26T05:41:08;-0.80;99.90
14006;DHT22;7078;51.542;7.314;2023-02-26T05:43:33;-0.80;99.90
14006;DHT22;7078;51.542;7.314;2023-02-26T05:46:00;-0.80;99.90
14006;DHT22;7078;51.542;7.314;2023-02-26T05:48:26;-0.90;99.90
14006;DHT22;7078;51.542;7.314;2023-02-26T05:50:51;-0.90;99.90
14006;DHT22;7078;51.542;7.314;2023-02-26T05:53:17;-0.90;99.90
14006;DHT22;7078;51.542;7.314;2023-02-26T05:55:43;-0.90;99.90
14006;DHT22;7078;51.542;7.314;2023-02-26T05:58:09;-0.90;99.90
14006;DHT22;7078;51.542;7.314;2023-02-26T06:00:34;-1.00;99.90
14006;DHT22;7078;51.542;7.314;2023-02-26T06:03:00;-1.00;99.90
14006;DHT22;7078;51.542;7.314;2023-02-26T06:05:26;-1.00;99.90
14006;DHT22;7078;51.542;7.314;2023-02-26T06:07:51;-0.90;99.90
14006;DHT22;7078;51.542;7.314;2023-02-26T06:10:17;-0.60;99.90
14006;DHT22;7078;51.542;7.314;2023-02-26T06:12:42;-0.60;99.90
14006;DHT22;7078;51.542;7.314;2023-02-26T06:15:08;-0.50;99.90
14006;DHT22;7078;51.542;7.314;2023-02-26T06:17:34;-0.50;99.90
14006;DHT22;7078;51.542;7.314;2023-02-26T06:20:00;-0.40;99.90
14006;DHT22;7078;51.542;7.314;2023-02-26T06:22:27;-0.40;99.90
14006;DHT22;7078;51.542;7.314;2023-02-26T06:24:53;-0.30;99.90
14006;DHT22;7078;51.542;7.314;2023-02-26T06:27:20;-0.50;99.90
14006;DHT22;7078;51.542;7.314;2023-02-26T06:29:46;-0.60;99.90
14006;DHT22;7078;51.542;7.314;2023-02-26T06:32:11;-0.60;99.90
14006;DHT22;7078;51.542;7.314;2023-02-26T06:34:37;-0.70;99.90
14006;DHT22;7078;51.542;7.314;2023-02-26T06:37:02;-0.70;99.90
14006;DHT22;7078;51.542;7.314;2023-02-26T06:39:28;-0.80;99.90
14006;DHT22;7078;51.542;7.314;2023-02-26T06:41:53;-0.80;99.90
14006;DHT22;7078;51.542;7.314;2023-02-26T06:44:19;-0.80;99.90
14006;DHT22;7078;51.542;7.314;2023-02-26T06:46:44;-0.90;99.90
14006;DHT22;7078;51.542;7.314;2023-02-26T06:49:10;-0.90;99.90
14006;DHT22;7078;51.542;7.314;2023-02-26T06:51:35;-0.90;99.90
14006;DHT22;7078;51.542;7.314;2023-02-26T06:54:01;-0.90;99.90
14006;DHT22;7078;51.542;7.314;2023-02-26T06:56:27;-0.90;99.90
14006;DHT22;7078;51.542;7.314;2023-02-26T06:58:52;-0.90;99.90
14006;DHT22;7078;51.542;7.314;2023-02-26T07:01:18;-0.90;99.90
14006;DHT22;7078;51.542;7.314;2023-02-26T07:03:44;-0.90;99.90
14006;DHT22;7078;51.542;7.314;2023-02-26T07:06:11;-0.90;99.90
14006;DHT22;7078;51.542;7.314;2023-02-26T07:08:37;-0.80;99.90
14006;DHT22;7078;51.542;7.314;2023-02-26T07:11:03;-0.80;99.90
14006;DHT22;7078;51.542;7.314;2023-02-26T07:13:29;-0.80;99.90
14006;DHT22;7078;51.542;7.314;2023-02-26T07:15:55;-0.70;99.90
14006;DHT22;7078;51.542;7.314;2023-02-26T07:18:20;-0.70;99.90
14006;DHT22;7078;51.542;7.314;2023-02-26T07:20:48;-0.70;99.90
14006;DHT22;7078;51.542;7.314;2023-02-26T07:23:14;-0.80;99.90
14006;DHT22;7078;51.542;7.314;2023-02-26T07:25:40;-0.80;99.90
14006;DHT22;7078;51.542;7.314;2023-02-26T07:28:05;-0.70;99.90
14006;DHT22;7078;51.542;7.314;2023-02-26T07:30:31;-0.70;99.90
14006;DHT22;7078;51.542;7.314;2023-02-26T07:32:56;-0.70;99.90
14006;DHT22;7078;51.542;7.314;2023-02-26T07:35:22;-0.60;99.90
14006;DHT22;7078;51.542;7.314;2023-02-26T07:37:48;-0.50;99.90
14006;DHT22;7078;51.542;7.314;2023-02-26T07:40:14;-0.40;99.90
14006;DHT22;7078;51.542;7.314;2023-02-26T07:42:40;-0.40;99.90
14006;DHT22;7078;51.542;7.314;2023-02-26T07:45:06;-0.40;99.90
14006;DHT22;7078;51.542;7.314;2023-02-26T07:47:33;-0.30;99.90
14006;DHT22;7078;51.542;7.314;2023-02-26T07:49:58;-0.30;99.90
14006;DHT22;7078;51.542;7.314;2023-02-26T07:52:24;-0.30;99.90
14006;DHT22;7078;51.542;7.314;2023-02-26T07:54:50;-0.20;99.90
14006;DHT22;7078;51.542;7.314;2023-02-26T07:57:16;-0.10;99.90
14006;DHT22;7078;51.542;7.314;2023-02-26T07:59:41;-0.10;99.90
14006;DHT22;7078;51.542;7.314;2023-02-26T08:02:07;0.00;99.90
14006;DHT22;7078;51.542;7.314;2023-02-26T08:04:32;0.00;99.90
14006;DHT22;7078;51.542;7.314;2023-02-26T08:06:59;0.10;99.90
14006;DHT22;7078;51.542;7.314;2023-02-26T08:09:25;0.10;99.90
14006;DHT22;7078;51.542;7.314;2023-02-26T08:11:50;0.20;99.90
14006;DHT22;7078;51.542;7.314;2023-02-26T08:14:16;0.30;99.90
14006;DHT22;7078;51.542;7.314;2023-02-26T08:16:42;0.30;99.90
14006;DHT22;7078;51.542;7.314;2023-02-26T08:19:07;0.40;99.90
14006;DHT22;7078;51.542;7.314;2023-02-26T08:21:33;0.40;99.90
14006;DHT22;7078;51.542;7.314;2023-02-26T08:23:59;0.50;99.90
14006;DHT22;7078;51.542;7.314;2023-02-26T08:26:25;0.60;99.90
14006;DHT22;7078;51.542;7.314;2023-02-26T08:28:50;0.60;99.90
14006;DHT22;7078;51.542;7.314;2023-02-26T08:31:16;0.70;99.90
14006;DHT22;7078;51.542;7.314;2023-02-26T08:33:42;0.70;99.90
14006;DHT22;7078;51.542;7.314;2023-02-26T08:36:08;0.80;99.90
14006;DHT22;7078;51.542;7.314;2023-02-26T08:38:34;0.80;99.90
14006;DHT22;7078;51.542;7.314;2023-02-26T08:41:00;0.80;99.90
14006;DHT22;7078;51.542;7.314;2023-02-26T08:43:25;0.90;99.90
14006;DHT22;7078;51.542;7.314;2023-02-26T08:45:52;1.10;99.90
14006;DHT22;7078;51.542;7.314;2023-02-26T08:48:18;1.10;99.90
14006;DHT22;7078;51.542;7.314;2023-02-26T08:50:44;1.20;99.90
14006;DHT22;7078;51.542;7.314;2023-02-26T08:53:09;1.30;99.90
14006;DHT22;7078;51.542;7.314;2023-02-26T08:55:35;1.40;99.90
14006;DHT22;7078;51.542;7.314;2023-02-26T08:58:01;1.40;99.90
14006;DHT22;7078;51.542;7.314;2023-02-26T09:00:27;1.50;99.90
14006;DHT22;7078;51.542;7.314;2023-02-26T09:02:53;1.50;99.90
14006;DHT22;7078;51.542;7.314;2023-02-26T09:05:18;1.60;99.90
14006;DHT22;7078;51.542;7.314;2023-02-26T09:07:44;1.60;99.90
14006;DHT22;7078;51.542;7.314;2023-02-26T09:10:11;1.60;99.90
14006;DHT22;7078;51.542;7.314;2023-02-26T09:12:37;1.70;99.90
14006;DHT22;7078;51.542;7.314;2023-02-26T09:15:07;1.80;99.90
14006;DHT22;7078;51.542;7.314;2023-02-26T09:17:33;1.80;99.90
14006;DHT22;7078;51.542;7.314;2023-02-26T09:19:59;1.80;99.90
14006;DHT22;7078;51.542;7.314;2023-02-26T09:22:24;1.90;99.90
14006;DHT22;7078;51.542;7.314;2023-02-26T09:24:50;1.90;99.90
14006;DHT22;7078;51.542;7.314;2023-02-26T09:27:16;1.90;99.90
14006;DHT22;7078;51.542;7.314;2023-02-26T09:29:42;2.00;99.90
14006;DHT22;7078;51.542;7.314;2023-02-26T09:32:07;2.00;99.90
14006;DHT22;7078;51.542;7.314;2023-02-26T09:34:35;2.10;99.90
14006;DHT22;7078;51.542;7.314;2023-02-26T09:37:03;2.10;99.90
14006;DHT22;7078;51.542;7.314;2023-02-26T09:39:28;2.30;99.90
14006;DHT22;7078;51.542;7.314;2023-02-26T09:41:57;2.30;99.90
14006;DHT22;7078;51.542;7.314;2023-02-26T09:44:31;2.40;99.90
14006;DHT22;7078;51.542;7.314;2023-02-26T09:47:39;2.40;99.90
14006;DHT22;7078;51.542;7.314;2023-02-26T09:50:17;2.40;99.90
14006;DHT22;7078;51.542;7.314;2023-02-26T09:52:49;2.50;99.90
14006;DHT22;7078;51.542;7.314;2023-02-26T09:55:30;2.60;99.90
14006;DHT22;7078;51.542;7.314;2023-02-26T09:58:01;2.70;96.10
14006;DHT22;7078;51.542;7.314;2023-02-26T10:00:36;2.80;96.90
14006;DHT22;7078;51.542;7.314;2023-02-26T10:14:10;3.00;89.00
14006;DHT22;7078;51.542;7.314;2023-02-26T10:16:41;2.90;89.80
14006;DHT22;7078;51.542;7.314;2023-02-26T10:19:12;3.00;91.10
14006;DHT22;7078;51.542;7.314;2023-02-26T10:21:56;3.00;90.60
14006;DHT22;7078;51.542;7.314;2023-02-26T10:24:35;3.10;88.90
14006;DHT22;7078;51.542;7.314;2023-02-26T10:27:14;3.10;86.60
14006;DHT22;7078;51.542;7.314;2023-02-26T10:29:56;3.10;88.30
14006;DHT22;7078;51.542;7.314;2023-02-26T10:32:40;3.20;84.60
14006;DHT22;7078;51.542;7.314;2023-02-26T10:35:15;3.20;88.00
14006;DHT22;7078;51.542;7.314;2023-02-26T10:38:10;3.20;86.30
14006;DHT22;7078;51.542;7.314;2023-02-26T10:41:14;3.20;85.40
14006;DHT22;7078;51.542;7.314;2023-02-26T10:43:56;3.20;81.60
14006;DHT22;7078;51.542;7.314;2023-02-26T10:46:58;3.20;82.10
14006;DHT22;7078;51.542;7.314;2023-02-26T10:49:49;3.30;80.60
14006;DHT22;7078;51.542;7.314;2023-02-26T10:52:21;3.20;82.50
14006;DHT22;7078;51.542;7.314;2023-02-26T10:57:58;3.10;79.70
14006;DHT22;7078;51.542;7.314;2023-02-26T11:00:24;3.50;80.10
14006;DHT22;7078;51.542;7.314;2023-02-26T11:02:51;3.30;77.90
14006;DHT22;7078;51.542;7.314;2023-02-26T11:05:22;3.30;75.80
14006;DHT22;7078;51.542;7.314;2023-02-26T11:07:51;3.30;76.80
14006;DHT22;7078;51.542;7.314;2023-02-26T11:10:22;3.30;76.80
14006;DHT22;7078;51.542;7.314;2023-02-26T11:12:48;3.30;73.40
14006;DHT22;7078;51.542;7.314;2023-02-26T11:15:17;3.30;72.30
14006;DHT22;7078;51.542;7.314;2023-02-26T11:17:46;3.50;73.80
14006;DHT22;7078;51.542;7.314;2023-02-26T11:20:16;3.50;72.60
14006;DHT22;7078;51.542;7.314;2023-02-26T11:22:49;3.60;74.10
14006;DHT22;7078;51.542;7.314;2023-02-26T11:25:21;3.70;72.90
14006;DHT22;7078;51.542;7.314;2023-02-26T11:27:49;3.70;73.50
14006;DHT22;7078;51.542;7.314;2023-02-26T11:30:19;3.80;71.80
14006;DHT22;7078;51.542;7.314;2023-02-26T11:32:50;3.80;69.60
14006;DHT22;7078;51.542;7.314;2023-02-26T11:35:18;3.80;69.60
14006;DHT22;7078;51.542;7.314;2023-02-26T11:37:48;3.70;69.70
14006;DHT22;7078;51.542;7.314;2023-02-26T11:40:17;3.70;69.10
14006;DHT22;7078;51.542;7.314;2023-02-26T11:42:51;3.60;70.00
14006;DHT22;7078;51.542;7.314;2023-02-26T11:45:18;3.70;71.40
14006;DHT22;7078;51.542;7.314;2023-02-26T11:47:46;3.80;71.30
14006;DHT22;7078;51.542;7.314;2023-02-26T11:50:20;4.00;70.80
14006;DHT22;7078;51.542;7.314;2023-02-26T11:52:54;4.10;68.70
14006;DHT22;7078;51.542;7.314;2023-02-26T11:57:53;4.30;67.20
14006;DHT22;7078;51.542;7.314;2023-02-26T12:00:34;4.30;65.40
14006;DHT22;7078;51.542;7.314;2023-02-26T12:03:04;4.20;64.80
14006;DHT22;7078;51.542;7.314;2023-02-26T12:05:33;4.30;64.80
14006;DHT22;7078;51.542;7.314;2023-02-26T12:07:59;4.30;66.40
14006;DHT22;7078;51.542;7.314;2023-02-26T12:10:39;4.30;65.40
14006;DHT22;7078;51.542;7.314;2023-02-26T12:13:40;4.30;66.20
14006;DHT22;7078;51.542;7.314;2023-02-26T12:16:25;4.40;65.20
14006;DHT22;7078;51.542;7.314;2023-02-26T12:19:00;4.40;63.40
14006;DHT22;7078;51.542;7.314;2023-02-26T12:27:37;4.50;64.40
14006;DHT22;7078;51.542;7.314;2023-02-26T12:30:28;4.50;63.60
14006;DHT22;7078;51.542;7.314;2023-02-26T12:33:23;4.60;63.40
14006;DHT22;7078;51.542;7.314;2023-02-26T12:36:14;4.60;64.00
14006;DHT22;7078;51.542;7.314;2023-02-26T12:39:16;4.70;63.40
14006;DHT22;7078;51.542;7.314;2023-02-26T12:55:59;4.60;60.30
14006;DHT22;7078;51.542;7.314;2023-02-26T12:58:48;4.60;61.40
14006;DHT22;7078;51.542;7.314;2023-02-26T13:04:27;4.70;62.00
14006;DHT22;7078;51.542;7.314;2023-02-26T13:09:55;4.90;63.00
14006;DHT22;7078;51.542;7.314;2023-02-26T13:13:04;5.00;61.40
14006;DHT22;7078;51.542;7.314;2023-02-26T13:18:10;4.90;59.20
14006;DHT22;7078;51.542;7.314;2023-02-26T13:21:03;4.90;58.70
14006;DHT22;7078;51.542;7.314;2023-02-26T13:23:42;5.00;58.40
14006;DHT22;7078;51.542;7.314;2023-02-26T13:26:10;5.10;57.50
14006;DHT22;7078;51.542;7.314;2023-02-26T13:29:00;5.10;57.50
14006;DHT22;7078;51.542;7.314;2023-02-26T13:31:46;5.10;58.70
14006;DHT22;7078;51.542;7.314;2023-02-26T13:34:22;5.10;60.20
14006;DHT22;7078;51.542;7.314;2023-02-26T13:36:50;5.30;59.80
14006;DHT22;7078;51.542;7.314;2023-02-26T13:44:54;5.80;57.50
14006;DHT22;7078;51.542;7.314;2023-02-26T13:52:55;5.20;58.30
14006;DHT22;7078;51.542;7.314;2023-02-26T13:55:55;4.80;57.30
14006;DHT22;7078;51.542;7.314;2023-02-26T13:58:37;4.80;58.50
14006;DHT22;7078;51.542;7.314;2023-02-26T14:01:18;4.90;58.80
14006;DHT22;7078;51.542;7.314;2023-02-26T14:06:43;5.20;57.90
14006;DHT22;7078;51.542;7.314;2023-02-26T14:17:35;5.50;58.30
14006;DHT22;7078;51.542;7.314;2023-02-26T14:20:07;5.50;57.60
14006;DHT22;7078;51.542;7.314;2023-02-26T14:22:35;5.60;58.20
14006;DHT22;7078;51.542;7.314;2023-02-26T14:25:29;5.70;58.00
14006;DHT22;7078;51.542;7.314;2023-02-26T14:30:48;5.60;57.00
14006;DHT22;7078;51.542;7.314;2023-02-26T14:33:16;5.50;58.10
14006;DHT22;7078;51.542;7.314;2023-02-26T14:35:45;5.50;59.40
14006;DHT22;7078;51.542;7.314;2023-02-26T14:38:35;5.40;60.80
14006;DHT22;7078;51.542;7.314;2023-02-26T14:41:11;5.20;59.50
14006;DHT22;7078;51.542;7.314;2023-02-26T14:43:48;5.00;58.40
14006;DHT22;7078;51.542;7.314;2023-02-26T14:46:17;5.00;59.40
14006;DHT22;7078;51.542;7.314;2023-02-26T14:48:43;5.00;58.50
14006;DHT22;7078;51.542;7.314;2023-02-26T14:51:32;5.00;58.30
14006;DHT22;7078;51.542;7.314;2023-02-26T15:05:28;5.40;57.60
14006;DHT22;7078;51.542;7.314;2023-02-26T15:13:30;5.20;58.20
14006;DHT22;7078;51.542;7.314;2023-02-26T15:19:13;5.20;58.40
14006;DHT22;7078;51.542;7.314;2023-02-26T15:22:08;5.20;58.70
14006;DHT22;7078;51.542;7.314;2023-02-26T15:24:39;5.30;58.60
14006;DHT22;7078;51.542;7.314;2023-02-26T15:27:07;5.30;59.00
14006;DHT22;7078;51.542;7.314;2023-02-26T15:29:37;5.20;59.00
14006;DHT22;7078;51.542;7.314;2023-02-26T15:32:20;5.30;60.70
14006;DHT22;7078;51.542;7.314;2023-02-26T15:34:54;5.40;61.10
14006;DHT22;7078;51.542;7.314;2023-02-26T15:37:23;5.30;60.40
14006;DHT22;7078;51.542;7.314;2023-02-26T15:39:51;5.30;59.60
14006;DHT22;7078;51.542;7.314;2023-02-26T15:42:18;5.20;61.20
14006;DHT22;7078;51.542;7.314;2023-02-26T15:44:46;5.20;62.10
14006;DHT22;7078;51.542;7.314;2023-02-26T15:47:14;5.30;63.90
14006;DHT22;7078;51.542;7.314;2023-02-26T15:49:46;5.20;62.10
14006;DHT22;7078;51.542;7.314;2023-02-26T15:52:18;5.10;60.80
14006;DHT22;7078;51.542;7.314;2023-02-26T15:54:49;5.20;62.90
14006;DHT22;7078;51.542;7.314;2023-02-26T15:57:18;5.10;62.90
14006;DHT22;7078;51.542;7.314;2023-02-26T15:59:47;5.10;63.10
14006;DHT22;7078;51.542;7.314;2023-02-26T16:02:25;5.10;62.00
14006;DHT22;7078;51.542;7.314;2023-02-26T16:04:51;5.10;61.40
14006;DHT22;7078;51.542;7.314;2023-02-26T16:07:20;5.00;62.00
14006;DHT22;7078;51.542;7.314;2023-02-26T16:09:48;5.00;61.80
14006;DHT22;7078;51.542;7.314;2023-02-26T16:12:29;4.90;60.70
14006;DHT22;7078;51.542;7.314;2023-02-26T16:15:03;4.70;61.90
14006;DHT22;7078;51.542;7.314;2023-02-26T16:17:33;4.50;61.00
14006;DHT22;7078;51.542;7.314;2023-02-26T16:20:03;4.50;61.10
14006;DHT22;7078;51.542;7.314;2023-02-26T16:22:36;4.50;61.90
14006;DHT22;7078;51.542;7.314;2023-02-26T16:28:11;4.30;62.30
14006;DHT22;7078;51.542;7.314;2023-02-26T16:30:42;4.20;62.80
14006;DHT22;7078;51.542;7.314;2023-02-26T16:33:12;4.20;61.60
14006;DHT22;7078;51.542;7.314;2023-02-26T16:35:48;4.10;62.10
14006;DHT22;7078;51.542;7.314;2023-02-26T16:38:24;4.00;61.80
14006;DHT22;7078;51.542;7.314;2023-02-26T16:40:59;4.00;63.00
14006;DHT22;7078;51.542;7.314;2023-02-26T16:46:01;3.80;65.00
14006;DHT22;7078;51.542;7.314;2023-02-26T16:51:19;3.70;65.20
14006;DHT22;7078;51.542;7.314;2023-02-26T16:56:26;3.70;64.80
14006;DHT22;7078;51.542;7.314;2023-02-26T16:59:17;3.60;66.10
14006;DHT22;7078;51.542;7.314;2023-02-26T17:01:58;3.60;65.70
14006;DHT22;7078;51.542;7.314;2023-02-26T17:04:29;3.60;65.90
14006;DHT22;7078;51.542;7.314;2023-02-26T17:06:57;3.60;66.70
14006;DHT22;7078;51.542;7.314;2023-02-26T17:09:37;3.50;66.30
14006;DHT22;7078;51.542;7.314;2023-02-26T17:14:40;3.50;67.60
14006;DHT22;7078;51.542;7.314;2023-02-26T17:17:07;3.40;67.90
14006;DHT22;7078;51.542;7.314;2023-02-26T17:19:33;3.40;67.90
14006;DHT22;7078;51.542;7.314;2023-02-26T17:21:58;3.40;68.80
14006;DHT22;7078;51.542;7.314;2023-02-26T17:24:30;3.40;69.30
14006;DHT22;7078;51.542;7.314;2023-02-26T17:26:56;3.30;69.90
14006;DHT22;7078;51.542;7.314;2023-02-26T17:29:34;3.30;70.00
14006;DHT22;7078;51.542;7.314;2023-02-26T17:32:02;3.30;70.40
14006;DHT22;7078;51.542;7.314;2023-02-26T17:34:27;3.20;70.70
14006;DHT22;7078;51.542;7.314;2023-02-26T17:36:54;3.20;71.50
14006;DHT22;7078;51.542;7.314;2023-02-26T17:39:20;3.20;71.70
14006;DHT22;7078;51.542;7.314;2023-02-26T17:41:46;3.20;71.70
14006;DHT22;7078;51.542;7.314;2023-02-26T17:44:11;3.10;71.80
14006;DHT22;7078;51.542;7.314;2023-02-26T17:46:37;3.20;72.20
14006;DHT22;7078;51.542;7.314;2023-02-26T17:49:02;3.20;72.40
14006;DHT22;7078;51.542;7.314;2023-02-26T17:51:28;3.10;73.30
14006;DHT22;7078;51.542;7.314;2023-02-26T17:53:53;3.10;73.10
14006;DHT22;7078;51.542;7.314;2023-02-26T17:56:28;3.20;73.60
14006;DHT22;7078;51.542;7.314;2023-02-26T17:58:56;3.20;74.20
14006;DHT22;7078;51.542;7.314;2023-02-26T18:01:22;3.20;74.00
14006;DHT22;7078;51.542;7.314;2023-02-26T18:03:48;3.20;74.50
14006;DHT22;7078;51.542;7.314;2023-02-26T18:06:14;3.30;74.50
14006;DHT22;7078;51.542;7.314;2023-02-26T18:08:40;3.30;74.40
14006;DHT22;7078;51.542;7.314;2023-02-26T18:11:07;3.30;74.40
14006;DHT22;7078;51.542;7.314;2023-02-26T18:13:36;3.40;74.90
14006;DHT22;7078;51.542;7.314;2023-02-26T18:16:02;3.30;75.10
14006;DHT22;7078;51.542;7.314;2023-02-26T18:18:29;3.40;74.90
14006;DHT22;7078;51.542;7.314;2023-02-26T18:20:55;3.40;75.90
14006;DHT22;7078;51.542;7.314;2023-02-26T18:23:20;3.40;76.20
14006;DHT22;7078;51.542;7.314;2023-02-26T18:25:48;3.40;76.20
14006;DHT22;7078;51.542;7.314;2023-02-26T18:28:21;3.40;76.20
14006;DHT22;7078;51.542;7.314;2023-02-26T18:30:47;3.40;76.20
14006;DHT22;7078;51.542;7.314;2023-02-26T18:33:13;3.40;76.50
14006;DHT22;7078;51.542;7.314;2023-02-26T18:35:44;3.40;77.10
14006;DHT22;7078;51.542;7.314;2023-02-26T18:38:14;3.40;76.90
14006;DHT22;7078;51.542;7.314;2023-02-26T18:40:41;3.40;77.00
14006;DHT22;7078;51.542;7.314;2023-02-26T18:43:06;3.40;77.50
14006;DHT22;7078;51.542;7.314;2023-02-26T18:45:34;3.40;78.40
14006;DHT22;7078;51.542;7.314;2023-02-26T18:48:00;3.40;78.50
14006;DHT22;7078;51.542;7.314;2023-02-26T18:50:25;3.40;79.00